Time;durP1;ratioP1;P1;durP2;ratioP2;P2;SDS_P1;SDS_P2;PMS_P1;PMS_P2;Temp;Humidity;BMP_temperature;BMP_pressure;BME280_temperature;BME280_humidity;BME280_pressure;Samples;Min_cycle;Max_cycle;Signal;HPM_P1;HPM_P2
2021/09/14 00:01:46;;;;;;;8.38;5.65;;;;;;;19.37;67.77;100239.28;4995345;28;20410;-79
2021/09/14 00:04:11;;;;;;;6.27;5.67;;;;;;;19.34;67.89;100231.66;4999896;28;20488;-79
2021/09/14 00:06:40;;;;;;;5.67;5.27;;;;;;;19.36;67.61;100233.00;4993468;28;20443;-79
2021/09/14 00:09:06;;;;;;;8.40;5.93;;;;;;;19.34;67.39;100232.47;5006395;28;20436;-79
2021/09/14 00:11:33;;;;;;;5.90;5.30;;;;;;;19.36;67.29;100230.25;5001074;28;20401;-79
2021/09/14 00:13:58;;;;;;;6.25;5.63;;;;;;;19.35;67.22;100227.81;5000337;28;20441;-79
2021/09/14 00:16:24;;;;;;;6.70;5.93;;;;;;;19.31;67.07;100226.78;5002442;28;20442;-79
2021/09/14 00:18:50;;;;;;;6.10;5.50;;;;;;;19.29;67.14;100229.03;4992453;28;20422;-79
2021/09/14 00:21:16;;;;;;;7.88;4.95;;;;;;;19.28;67.17;100221.91;4991461;28;20911;-79
2021/09/14 00:23:41;;;;;;;7.97;5.35;;;;;;;19.29;67.13;100223.53;4996291;28;20492;-79
2021/09/14 00:26:07;;;;;;;9.27;5.40;;;;;;;19.27;66.88;100217.53;5003411;28;20398;-80
2021/09/14 00:28:32;;;;;;;8.53;5.47;;;;;;;19.26;66.76;100218.66;4993596;28;20399;-79
2021/09/14 00:30:57;;;;;;;9.53;5.67;;;;;;;19.24;66.65;100218.97;5004541;28;20406;-79
2021/09/14 00:33:22;;;;;;;8.10;5.63;;;;;;;19.22;66.92;100209.41;4997001;28;20418;-79
2021/09/14 00:35:48;;;;;;;6.23;5.63;;;;;;;19.21;66.77;100218.75;5005469;28;20994;-80
2021/09/14 00:38:13;;;;;;;6.70;6.00;;;;;;;19.22;66.83;100214.91;5010579;28;20491;-79
2021/09/14 00:40:38;;;;;;;9.80;5.87;;;;;;;19.21;66.89;100216.81;4999136;28;20414;-79
2021/09/14 00:43:04;;;;;;;6.30;5.50;;;;;;;19.20;66.79;100209.69;5007490;28;20462;-79
2021/09/14 00:45:29;;;;;;;6.27;5.73;;;;;;;19.18;66.76;100201.78;4993406;28;20403;-79
2021/09/14 00:47:54;;;;;;;10.03;6.03;;;;;;;19.15;66.93;100205.16;5001042;28;20424;-79
2021/09/14 00:50:19;;;;;;;7.90;6.03;;;;;;;19.12;66.97;100205.75;5008419;28;20497;-80
2021/09/14 00:52:45;;;;;;;9.75;6.22;;;;;;;19.11;66.92;100208.81;5002863;28;20400;-79
2021/09/14 00:55:10;;;;;;;6.73;5.77;;;;;;;19.07;67.12;100208.59;5008715;28;20432;-80
2021/09/14 00:57:36;;;;;;;7.77;6.23;;;;;;;19.03;67.07;100204.06;5017943;28;20426;-79
2021/09/14 01:00:02;;;;;;;9.90;6.27;;;;;;;18.98;67.29;100206.88;5008246;28;20480;-79
2021/09/14 01:02:27;;;;;;;7.55;6.45;;;;;;;18.97;67.48;100213.50;4996907;28;20402;-79
2021/09/14 01:04:52;;;;;;;6.93;6.30;;;;;;;18.96;67.63;100206.38;5003727;28;20481;-79
2021/09/14 01:07:18;;;;;;;6.93;6.30;;;;;;;18.94;67.57;100209.44;5007123;28;20475;-79
2021/09/14 01:09:44;;;;;;;6.93;6.43;;;;;;;18.94;67.63;100209.44;4994324;28;20870;-79
2021/09/14 01:12:10;;;;;;;7.80;6.22;;;;;;;18.94;67.67;100216.84;5001925;28;20411;-79
2021/09/14 01:14:35;;;;;;;7.10;6.10;;;;;;;18.89;67.83;100217.78;5010642;28;20401;-80
2021/09/14 01:17:00;;;;;;;8.00;6.33;;;;;;;18.87;67.90;100206.28;5002011;28;20428;-79
2021/09/14 01:19:25;;;;;;;10.07;6.50;;;;;;;18.86;67.87;100203.84;5007973;28;20416;-79
2021/09/14 01:21:51;;;;;;;8.10;5.60;;;;;;;18.85;67.89;100205.78;5001887;28;20911;-79
2021/09/14 01:24:16;;;;;;;6.68;5.97;;;;;;;18.82;67.98;100198.16;5002210;28;20839;-79
2021/09/14 01:26:41;;;;;;;7.10;6.40;;;;;;;18.82;67.92;100202.84;4992040;28;20406;-79
2021/09/14 01:29:08;;;;;;;7.27;5.90;;;;;;;18.84;67.64;100211.56;5008834;28;20472;-79
2021/09/14 01:31:34;;;;;;;5.55;4.95;;;;;;;18.81;66.94;100206.69;5005571;28;20466;-79
2021/09/14 01:33:59;;;;;;;8.48;5.32;;;;;;;18.76;66.69;100204.06;4996008;28;20414;-79
2021/09/14 01:36:25;;;;;;;7.20;5.50;;;;;;;18.67;66.65;100206.72;4993941;28;20422;-79
2021/09/14 01:38:50;;;;;;;5.93;5.43;;;;;;;18.62;66.86;100207.59;4993369;28;20886;-79
2021/09/14 01:41:15;;;;;;;8.33;5.50;;;;;;;18.59;67.43;100201.91;4999204;28;20421;-79
2021/09/14 01:43:42;;;;;;;6.13;5.53;;;;;;;18.56;67.81;100211.56;5006651;28;20466;-79
2021/09/14 01:46:08;;;;;;;5.67;5.27;;;;;;;18.54;67.83;100208.28;5005258;28;20414;-79
2021/09/14 01:48:34;;;;;;;6.45;5.38;;;;;;;18.57;68.23;100209.66;4990071;28;20416;-79
2021/09/14 01:51:00;;;;;;;5.90;4.63;;;;;;;18.56;68.19;100213.50;5002482;28;20745;-79
2021/09/14 01:53:26;;;;;;;6.23;5.50;;;;;;;18.58;68.42;100214.00;4997599;28;21294;-79
2021/09/14 01:55:54;;;;;;;7.55;5.40;;;;;;;18.55;68.42;100207.19;4996130;28;20497;-79
2021/09/14 01:58:20;;;;;;;7.37;5.23;;;;;;;18.51;68.43;100211.66;5001086;28;20392;-79
2021/09/14 02:00:58;;;;;;;4.50;4.20;;;;;;;18.50;67.86;100209.22;5003360;28;20809;-79
2021/09/14 02:06:20;;;;;;;5.72;4.78;;;;;;;18.39;67.21;100210.50;5001541;28;20402;-79
2021/09/14 02:08:57;;;;;;;5.30;5.00;;;;;;;18.33;67.41;100204.28;5003577;28;20409;-79
2021/09/14 03:00:04;;;;;;;7.47;5.70;;;;;;;18.07;68.83;100200.38;5005910;28;20432;-79
2021/09/14 03:02:29;;;;;;;6.72;6.13;;;;;;;18.05;69.01;100197.09;5012672;28;20428;-79
2021/09/14 03:04:55;;;;;;;8.43;7.73;;;;;;;17.94;69.93;100192.91;4995338;28;20434;-79
2021/09/14 03:07:20;;;;;;;9.10;7.47;;;;;;;17.79;70.74;100193.97;4999080;28;20805;-79
2021/09/14 03:09:45;;;;;;;7.27;6.70;;;;;;;17.80;70.99;100194.78;4992379;28;20406;-79
2021/09/14 03:12:11;;;;;;;9.00;7.90;;;;;;;17.78;70.97;100194.28;5008992;28;20502;-79
2021/09/14 03:14:36;;;;;;;7.90;7.30;;;;;;;17.82;70.90;100196.09;5005698;28;20472;-80
2021/09/14 03:17:01;;;;;;;8.10;7.40;;;;;;;17.83;70.76;100202.41;4993152;28;20437;-79
2021/09/14 03:19:26;;;;;;;10.23;7.17;;;;;;;17.77;70.88;100201.69;4995989;28;20477;-79
2021/09/14 03:21:52;;;;;;;7.90;7.03;;;;;;;17.71;71.27;100199.31;5012069;28;20404;-79
2021/09/14 03:24:17;;;;;;;7.77;7.03;;;;;;;17.73;70.90;100206.13;4992795;28;20415;-79
2021/09/14 03:26:42;;;;;;;9.60;7.72;;;;;;;17.75;71.02;100198.41;4994939;28;20499;-80
2021/09/14 03:29:08;;;;;;;9.87;8.97;;;;;;;17.74;71.04;100199.56;5008405;28;20421;-80
2021/09/14 03:31:34;;;;;;;11.23;8.90;;;;;;;17.72;71.08;100198.19;4999572;28;20884;-79
2021/09/14 03:33:59;;;;;;;10.33;9.30;;;;;;;17.70;71.16;100201.25;5005077;28;20408;-79
2021/09/14 03:36:24;;;;;;;10.93;10.03;;;;;;;17.71;71.06;100196.59;4999029;28;20996;-80
2021/09/14 03:38:50;;;;;;;9.90;9.00;;;;;;;17.76;71.02;100202.78;4991397;28;20402;-79
2021/09/14 03:41:15;;;;;;;9.57;8.57;;;;;;;17.75;71.03;100197.63;5004554;28;20423;-79
2021/09/14 03:43:42;;;;;;;9.02;8.13;;;;;;;17.77;70.86;100195.38;5010909;28;20475;-80
2021/09/14 03:46:07;;;;;;;10.82;7.90;;;;;;;17.72;70.98;100188.06;4999381;28;20410;-80
2021/09/14 03:48:33;;;;;;;7.80;7.20;;;;;;;17.74;70.85;100193.25;4999900;28;20413;-80
2021/09/14 03:50:58;;;;;;;8.20;7.40;;;;;;;17.76;70.85;100196.50;4999656;28;20835;-79
2021/09/14 03:53:23;;;;;;;8.63;7.80;;;;;;;17.77;70.64;100190.72;4997528;28;20406;-79
2021/09/14 03:55:49;;;;;;;8.80;8.00;;;;;;;17.73;70.65;100191.59;5008379;28;20437;-79
2021/09/14 03:58:15;;;;;;;8.50;7.60;;;;;;;17.73;70.88;100183.38;4998120;28;20945;-79
2021/09/14 04:00:40;;;;;;;8.30;7.50;;;;;;;17.75;70.56;100184.72;5009855;28;20397;-79
2021/09/14 04:03:09;;;;;;;7.60;6.38;;;;;;;17.75;69.77;100186.66;5002459;28;20769;-79
2021/09/14 04:10:45;;;;;;;9.95;6.60;;;;;;;17.62;69.54;100193.69;5001249;28;20422;-79
2021/09/14 04:13:11;;;;;;;7.80;6.50;;;;;;;17.58;69.53;100190.72;5002811;28;20416;-80
2021/09/14 04:15:37;;;;;;;8.32;5.90;;;;;;;17.55;69.31;100187.75;5003407;28;20447;-79
2021/09/14 04:18:03;;;;;;;7.20;6.50;;;;;;;17.51;69.08;100184.81;5010775;28;20492;-79
2021/09/14 04:20:29;;;;;;;10.60;6.03;;;;;;;17.46;69.24;100190.34;5010181;28;20408;-79
2021/09/14 04:22:54;;;;;;;8.27;6.00;;;;;;;17.42;69.30;100189.28;5005447;28;20397;-79
2021/09/14 04:25:19;;;;;;;9.43;6.87;;;;;;;17.38;69.44;100190.22;4995253;28;20488;-79
2021/09/14 04:27:45;;;;;;;7.87;6.13;;;;;;;17.36;69.31;100193.22;5005529;28;20896;-80
2021/09/14 04:30:10;;;;;;;8.75;6.80;;;;;;;17.35;69.58;100186.13;5010754;28;20405;-79
2021/09/14 04:32:36;;;;;;;7.20;6.50;;;;;;;17.35;69.68;100190.81;4998818;28;20409;-79
2021/09/14 04:35:02;;;;;;;6.47;5.73;;;;;;;17.35;69.34;100193.53;4993672;28;20498;-79
2021/09/14 04:37:28;;;;;;;10.00;5.30;;;;;;;17.34;69.49;100200.94;5003878;28;20426;-80
2021/09/14 04:39:54;;;;;;;36.20;6.53;;;;;;;17.31;69.58;100200.72;4993856;28;20418;-79
2021/09/14 04:42:19;;;;;;;7.23;5.67;;;;;;;17.29;69.49;100192.00;4998853;28;20416;-80
2021/09/14 04:44:45;;;;;;;7.50;6.33;;;;;;;17.29;69.49;100194.72;5005620;28;20424;-79
2021/09/14 04:47:11;;;;;;;8.73;6.55;;;;;;;17.26;69.52;100195.28;5004026;28;20439;-79
2021/09/14 04:49:36;;;;;;;8.18;6.50;;;;;;;17.23;69.71;100199.44;4999739;28;20391;-79
2021/09/14 04:52:05;;;;;;;7.37;6.20;;;;;;;17.22;69.75;100192.34;5007703;28;20444;-80
2021/09/14 04:54:31;;;;;;;11.73;7.00;;;;;;;17.22;69.72;100194.28;4998157;28;20405;-79
2021/09/14 04:56:57;;;;;;;14.27;7.45;;;;;;;17.21;69.77;100192.63;4992899;28;20773;-78
2021/09/14 04:59:22;;;;;;;19.73;7.93;;;;;;;17.18;69.95;100199.53;4991926;28;20462;-79
2021/09/14 05:01:47;;;;;;;19.53;7.37;;;;;;;17.17;70.09;100186.94;5001564;28;20412;-79
2021/09/14 05:04:12;;;;;;;16.63;7.20;;;;;;;17.16;70.05;100193.50;5010816;28;20471;-79
2021/09/14 05:06:38;;;;;;;21.05;10.75;;;;;;;17.14;69.80;100190.25;5007038;28;20985;-80
2021/09/14 05:09:03;;;;;;;10.30;6.77;;;;;;;17.10;69.89;100190.03;5002277;28;20419;-79
2021/09/14 05:11:29;;;;;;;8.27;6.27;;;;;;;17.05;70.25;100194.78;4996306;28;20498;-79
2021/09/14 05:13:54;;;;;;;14.17;6.73;;;;;;;17.01;70.17;100188.25;5004852;28;20508;-79
2021/09/14 05:16:19;;;;;;;12.03;6.70;;;;;;;17.00;70.08;100186.59;4993883;28;20468;-79
2021/09/14 05:18:47;;;;;;;11.17;6.27;;;;;;;16.99;70.30;100185.00;5007460;28;20422;-80
2021/09/14 05:21:13;;;;;;;16.13;7.18;;;;;;;16.97;70.40;100190.75;4998925;28;20466;-77
2021/09/14 05:23:38;;;;;;;20.07;7.57;;;;;;;16.99;70.64;100199.47;5002698;28;20397;-78
2021/09/14 05:26:04;;;;;;;12.77;6.70;;;;;;;17.04;70.50;100187.66;4994367;28;20412;-78
2021/09/14 05:28:35;;;;;;;21.20;7.38;;;;;;;17.07;70.72;100187.88;5007726;28;20448;-78
2021/09/14 05:31:02;;;;;;;15.20;6.70;;;;;;;17.08;70.95;100181.31;5004465;28;20402;-78
2021/09/14 05:33:31;;;;;;;51.80;9.93;;;;;;;17.11;71.04;100193.59;5003403;28;20403;-78
2021/09/14 05:35:57;;;;;;;12.43;7.55;;;;;;;17.13;71.07;100192.19;4997219;28;20418;-77
2021/09/14 05:38:24;;;;;;;16.55;7.45;;;;;;;17.18;71.25;100198.69;4999748;28;20404;-78
2021/09/14 05:40:53;;;;;;;14.20;6.85;;;;;;;17.22;70.92;100206.03;5005528;28;20502;-77
2021/09/14 05:43:19;;;;;;;14.93;6.63;;;;;;;17.27;70.73;100202.41;5005971;28;20867;-76
2021/09/14 05:45:45;;;;;;;18.38;7.05;;;;;;;17.26;70.40;100196.09;4998576;28;20398;-77
2021/09/14 05:48:10;;;;;;;17.30;7.60;;;;;;;17.30;70.09;100199.06;4997419;28;20507;-80
2021/09/14 05:50:35;;;;;;;12.80;7.70;;;;;;;17.31;70.22;100197.97;5009694;28;20872;-77
2021/09/14 05:53:00;;;;;;;22.03;7.77;;;;;;;17.35;70.13;100205.31;5005017;28;20417;-77
2021/09/14 05:55:26;;;;;;;19.93;8.03;;;;;;;17.38;70.28;100203.91;5003534;28;20406;-77
2021/09/14 05:57:51;;;;;;;20.00;7.70;;;;;;;17.42;70.09;100213.16;5010777;28;20430;-80
2021/09/14 06:00:17;;;;;;;18.00;7.97;;;;;;;17.43;70.33;100210.13;5012056;28;20491;-79
2021/09/14 06:02:42;;;;;;;17.93;8.27;;;;;;;17.46;70.52;100211.44;5013038;28;20405;-78
2021/09/14 06:05:08;;;;;;;11.13;7.83;;;;;;;17.51;70.54;100214.94;5000065;28;20962;-80
2021/09/14 06:07:33;;;;;;;15.93;8.90;;;;;;;17.58;70.44;100220.06;4998412;28;20404;-78
2021/09/14 06:09:59;;;;;;;14.05;7.88;;;;;;;17.64;70.51;100207.94;5009643;28;20957;-78
2021/09/14 06:12:25;;;;;;;16.13;8.40;;;;;;;17.63;70.66;100211.78;5002937;28;20477;-78
2021/09/14 06:14:50;;;;;;;12.25;7.90;;;;;;;17.65;71.23;100219.72;5007720;28;20472;-78
2021/09/14 06:17:16;;;;;;;13.37;8.00;;;;;;;17.71;71.15;100224.81;4995382;28;20398;-78
2021/09/14 06:19:42;;;;;;;12.27;8.32;;;;;;;17.72;71.05;100223.69;4998537;28;20401;-79
2021/09/14 06:22:07;;;;;;;15.70;8.90;;;;;;;17.71;71.09;100227.56;5008949;28;20392;-78
2021/09/14 06:24:32;;;;;;;15.17;8.83;;;;;;;17.76;71.35;100234.88;5001594;28;20497;-78
2021/09/14 06:26:58;;;;;;;12.83;8.00;;;;;;;17.77;71.31;100228.28;5009443;28;20403;-78
2021/09/14 06:29:23;;;;;;;10.48;8.23;;;;;;;17.80;70.98;100230.41;4998592;28;20813;-78
2021/09/14 06:31:48;;;;;;;17.00;9.10;;;;;;;17.78;71.42;100238.13;4999303;28;20394;-78
2021/09/14 06:34:14;;;;;;;28.27;9.90;;;;;;;17.80;71.81;100241.38;5004292;28;20405;-79
2021/09/14 06:36:39;;;;;;;24.90;10.10;;;;;;;17.80;72.04;100227.69;5013882;28;20459;-78
2021/09/14 06:39:04;;;;;;;26.33;9.70;;;;;;;17.85;71.87;100227.63;4996779;28;20455;-78
2021/09/14 06:41:31;;;;;;;20.27;9.80;;;;;;;17.94;71.78;100225.81;5005220;28;22346;-78
2021/09/14 06:43:58;;;;;;;19.50;8.67;;;;;;;17.99;71.77;100220.25;4999586;28;20492;-78
2021/09/14 06:46:23;;;;;;;16.17;10.23;;;;;;;18.01;72.00;100226.25;5002428;28;20521;-79
2021/09/14 06:48:49;;;;;;;10.47;9.43;;;;;;;18.07;72.03;100231.34;5012211;28;21131;-78
2021/09/14 06:51:14;;;;;;;12.82;9.20;;;;;;;18.13;71.87;100230.16;5011459;28;20894;-79
2021/09/14 06:53:39;;;;;;;16.30;9.70;;;;;;;18.18;71.87;100229.22;5008541;28;20401;-78
2021/09/14 06:56:06;;;;;;;16.60;9.60;;;;;;;18.24;71.89;100230.78;5000385;28;20940;-78
2021/09/14 06:58:31;;;;;;;13.27;10.35;;;;;;;18.28;71.97;100236.47;5002510;28;20389;-78
2021/09/14 07:00:57;;;;;;;11.67;9.53;;;;;;;18.34;71.60;100238.03;5006054;28;20401;-78
2021/09/14 07:03:22;;;;;;;10.95;10.05;;;;;;;18.38;71.78;100239.03;5003600;28;20999;-78
2021/09/14 07:05:47;;;;;;;12.20;10.70;;;;;;;18.43;71.90;100244.44;5008696;28;20457;-79
2021/09/14 07:08:13;;;;;;;13.73;9.93;;;;;;;18.47;71.72;100234.50;5001043;28;21070;-78
2021/09/14 07:10:39;;;;;;;13.48;10.32;;;;;;;18.53;71.85;100242.38;5009560;28;20402;-78
2021/09/14 07:13:04;;;;;;;11.73;10.68;;;;;;;18.55;72.12;100244.78;5001013;28;20487;-78
2021/09/14 07:15:30;;;;;;;14.50;11.07;;;;;;;18.57;72.23;100251.59;5001704;28;20789;-79
2021/09/14 07:17:55;;;;;;;15.10;11.17;;;;;;;18.59;72.16;100245.81;5006411;28;20409;-79
2021/09/14 07:20:20;;;;;;;17.80;11.43;;;;;;;18.59;72.23;100252.13;5026141;28;20756;-79
2021/09/14 07:22:46;;;;;;;16.13;10.77;;;;;;;18.61;72.45;100249.88;5006803;28;20390;-79
2021/09/14 07:25:11;;;;;;;17.63;11.53;;;;;;;18.65;72.77;100252.84;4998239;28;20434;-79
2021/09/14 07:27:37;;;;;;;18.25;11.65;;;;;;;18.63;72.79;100253.16;5007080;28;20431;-78
2021/09/14 07:30:03;;;;;;;22.23;11.57;;;;;;;18.67;72.85;100254.16;5005058;28;20445;-78
2021/09/14 07:32:28;;;;;;;23.35;11.02;;;;;;;18.76;72.68;100262.53;4993204;28;20395;-79
2021/09/14 07:34:54;;;;;;;22.73;11.60;;;;;;;18.86;72.64;100253.28;5005615;28;20404;-78
2021/09/14 07:37:19;;;;;;;21.93;11.87;;;;;;;18.90;72.83;100255.09;4998961;28;20509;-79
2021/09/14 07:39:44;;;;;;;26.73;12.03;;;;;;;18.97;72.80;100263.75;5009130;28;20389;-79
2021/09/14 07:42:10;;;;;;;26.30;12.23;;;;;;;19.02;72.66;100254.59;4992192;28;20407;-79
2021/09/14 07:44:35;;;;;;;18.03;13.23;;;;;;;19.02;73.17;100258.16;5000768;28;20397;-79
2021/09/14 07:47:00;;;;;;;15.30;13.67;;;;;;;18.97;73.54;100254.69;5001212;28;20537;-80
2021/09/14 07:49:26;;;;;;;18.73;14.23;;;;;;;18.95;73.72;100257.75;5007803;28;20467;-79
2021/09/14 07:51:51;;;;;;;15.97;13.37;;;;;;;19.01;73.71;100261.19;5009836;28;20410;-80
2021/09/14 07:54:16;;;;;;;15.43;13.60;;;;;;;18.99;74.12;100266.19;5000712;28;20829;-79
2021/09/14 07:56:41;;;;;;;13.75;12.35;;;;;;;19.02;74.33;100263.66;4985418;28;20425;-79
2021/09/14 07:59:08;;;;;;;18.03;13.40;;;;;;;19.04;74.25;100266.91;4996539;28;20480;-79
2021/09/14 08:01:34;;;;;;;18.95;14.15;;;;;;;19.14;74.31;100266.69;4995603;28;20410;-79
2021/09/14 08:03:59;;;;;;;14.63;12.90;;;;;;;19.22;73.75;100261.59;5006804;28;20870;-79
2021/09/14 08:06:24;;;;;;;14.50;12.97;;;;;;;19.32;73.51;100261.38;5001899;28;20476;-79
2021/09/14 08:08:50;;;;;;;13.05;11.75;;;;;;;19.39;73.23;100270.03;4998898;28;20500;-79
2021/09/14 08:11:16;;;;;;;14.27;11.97;;;;;;;19.38;73.60;100260.16;4991998;28;20762;-79
2021/09/14 08:13:42;;;;;;;12.43;10.48;;;;;;;19.52;73.28;100255.50;5007534;28;20386;-79
2021/09/14 08:16:07;;;;;;;11.00;9.98;;;;;;;19.65;72.82;100254.63;4993848;28;20395;-79
2021/09/14 08:18:32;;;;;;;11.00;9.97;;;;;;;19.75;72.44;100256.34;5003934;28;20467;-79
2021/09/14 08:20:58;;;;;;;12.63;9.57;;;;;;;19.78;71.97;100250.22;5009204;28;20417;-79
2021/09/14 08:23:23;;;;;;;10.93;9.93;;;;;;;19.90;71.65;100242.22;4994346;28;20408;-79
2021/09/14 08:25:48;;;;;;;10.97;9.77;;;;;;;19.98;71.33;100242.31;5004759;28;20414;-78
2021/09/14 08:28:14;;;;;;;12.03;10.00;;;;;;;20.10;71.07;100244.47;4995847;28;20812;-78
2021/09/14 08:30:39;;;;;;;12.40;10.93;;;;;;;20.21;70.41;100254.13;5000733;28;20426;-79
2021/09/14 08:33:05;;;;;;;13.50;10.47;;;;;;;20.28;70.60;100249.00;5006603;28;20393;-80
2021/09/14 08:35:30;;;;;;;15.27;10.13;;;;;;;20.30;70.67;100255.00;4999745;28;20427;-79
2021/09/14 08:37:56;;;;;;;18.67;9.95;;;;;;;20.38;70.20;100251.50;5001765;28;20433;-78
2021/09/14 08:40:21;;;;;;;13.10;9.90;;;;;;;20.47;70.10;100252.38;5001047;28;20406;-80
2021/09/14 08:42:47;;;;;;;12.07;10.02;;;;;;;20.41;70.11;100261.88;5002428;28;20923;-81
2021/09/14 08:45:12;;;;;;;11.77;9.20;;;;;;;20.51;70.45;100247.84;4996022;28;20404;-80
2021/09/14 08:47:38;;;;;;;14.07;10.27;;;;;;;20.63;70.17;100253.56;5003445;28;20448;-81
2021/09/14 08:50:07;;;;;;;19.42;10.13;;;;;;;20.74;69.66;100259.63;5001211;28;20902;-80
2021/09/14 08:52:33;;;;;;;13.03;10.10;;;;;;;20.79;69.27;100259.47;5004146;28;20884;-80
2021/09/14 08:54:59;;;;;;;13.03;9.93;;;;;;;20.85;69.06;100255.44;5010265;28;20396;-81
2021/09/14 08:57:24;;;;;;;10.35;9.35;;;;;;;20.88;69.08;100260.31;4999473;28;20438;-80
2021/09/14 08:59:50;;;;;;;10.30;9.30;;;;;;;20.92;68.43;100253.06;4990796;28;20414;-80
2021/09/14 09:02:17;;;;;;;10.52;9.45;;;;;;;21.02;67.42;100252.75;5002733;28;20496;-81
2021/09/14 09:05:03;;;;;;;12.65;9.07;;;;;;;21.17;67.53;100248.81;4999217;28;20429;-81
2021/09/14 09:07:34;;;;;;;12.03;10.00;;;;;;;21.31;66.99;100248.66;4999539;28;20399;-80
2021/09/14 09:10:10;;;;;;;10.45;9.38;;;;;;;21.36;66.74;100243.81;5001130;28;20540;-81
2021/09/14 09:12:40;;;;;;;11.30;9.23;;;;;;;21.49;66.33;100248.38;4991169;28;20423;-81
2021/09/14 09:15:08;;;;;;;9.40;8.40;;;;;;;21.61;65.77;100244.97;4999808;28;20565;-81
2021/09/14 09:17:34;;;;;;;10.60;7.80;;;;;;;21.68;66.18;100257.16;5006254;28;20446;-82
2021/09/14 09:20:03;;;;;;;9.17;8.17;;;;;;;21.66;65.91;100253.91;5007402;28;20893;-83
2021/09/14 09:22:29;;;;;;;8.75;7.95;;;;;;;21.62;66.05;100249.38;5008992;28;20405;-82
2021/09/14 09:24:55;;;;;;;7.63;6.93;;;;;;;21.92;65.07;100253.94;4996656;28;20417;-83
2021/09/14 09:27:27;;;;;;;10.15;7.60;;;;;;;22.07;64.40;100252.63;5017939;28;20429;-82
2021/09/14 09:30:07;;;;;;;8.53;6.80;;;;;;;22.36;63.79;100249.97;5005184;28;20420;-83
2021/09/14 09:32:47;;;;;;;7.22;6.45;;;;;;;22.63;62.63;100248.78;4992073;28;20411;-83
2021/09/14 09:35:23;;;;;;;8.63;7.07;;;;;;;22.98;61.35;100255.84;4992486;28;20504;-83
2021/09/14 09:37:52;;;;;;;7.38;6.68;;;;;;;23.44;59.32;100256.91;4996035;28;20836;-83
2021/09/14 09:40:26;;;;;;;7.30;6.63;;;;;;;23.84;57.96;100255.31;4996063;28;20413;-82
2021/09/14 09:42:54;;;;;;;11.07;7.50;;;;;;;24.27;57.03;100250.22;5004833;28;20467;-82
2021/09/14 09:45:20;;;;;;;7.43;6.80;;;;;;;24.59;55.80;100264.41;5005390;28;20431;-82
2021/09/14 09:47:49;;;;;;;8.40;6.80;;;;;;;25.04;55.11;100254.09;4994509;28;20417;-82
2021/09/14 09:50:14;;;;;;;8.88;7.07;;;;;;;25.54;53.07;100255.69;4994743;28;20445;-82
2021/09/14 09:52:43;;;;;;;7.45;6.30;;;;;;;25.91;52.00;100260.00;4991390;28;20418;-82
2021/09/14 09:55:10;;;;;;;6.40;5.80;;;;;;;26.19;51.45;100258.06;5005071;28;20446;-82
2021/09/14 09:57:36;;;;;;;7.85;6.30;;;;;;;26.77;50.58;100252.91;5007091;28;21009;-82
2021/09/14 10:00:08;;;;;;;6.22;5.60;;;;;;;27.24;49.19;100242.56;5007746;28;20411;-82
2021/09/14 10:02:34;;;;;;;6.60;6.00;;;;;;;27.43;47.50;100244.59;5010872;28;20393;-80
2021/09/14 10:05:07;;;;;;;6.55;5.65;;;;;;;27.71;46.84;100247.22;5004970;28;20433;-81
2021/09/14 10:07:34;;;;;;;6.17;5.57;;;;;;;27.71;47.44;100239.69;5002319;28;20413;-82
2021/09/14 10:10:01;;;;;;;8.73;5.53;;;;;;;27.13;48.53;100237.94;4997719;28;20912;-81
2021/09/14 10:12:31;;;;;;;6.38;5.25;;;;;;;26.57;50.18;100238.09;4995059;28;20413;-82
2021/09/14 10:15:07;;;;;;;9.02;5.80;;;;;;;26.16;50.91;100238.50;5011470;28;20404;-82
2021/09/14 10:17:46;;;;;;;5.97;5.47;;;;;;;25.91;52.27;100240.56;5000420;28;20421;-83
2021/09/14 10:20:12;;;;;;;10.65;5.88;;;;;;;26.11;51.52;100238.75;5009037;28;20749;-81
2021/09/14 10:22:39;;;;;;;10.00;5.50;;;;;;;26.70;50.46;100236.03;5000602;28;20406;-84
2021/09/14 10:25:06;;;;;;;6.68;5.05;;;;;;;27.19;48.84;100231.72;4994998;28;20427;-81
2021/09/14 10:27:40;;;;;;;7.38;5.07;;;;;;;27.89;46.52;100236.47;4994411;28;20387;-82
2021/09/14 10:30:08;;;;;;;5.18;4.78;;;;;;;28.69;44.90;100231.72;5002940;28;20480;-81
2021/09/14 10:32:39;;;;;;;4.73;4.33;;;;;;;29.13;44.13;100236.84;5008756;28;20884;-81
2021/09/14 10:35:04;;;;;;;6.55;5.43;;;;;;;28.80;44.65;100241.09;5006854;28;20443;-82
2021/09/14 10:37:31;;;;;;;5.23;4.60;;;;;;;28.31;45.77;100242.94;5000796;28;20926;-83
2021/09/14 10:40:06;;;;;;;5.10;4.70;;;;;;;27.52;47.30;100239.66;5001614;28;20813;-80
2021/09/14 10:42:36;;;;;;;5.55;5.03;;;;;;;26.67;49.23;100234.78;5008862;28;20750;-82
2021/09/14 10:45:10;;;;;;;6.10;4.70;;;;;;;26.08;50.59;100231.13;5009743;28;20403;-81
2021/09/14 10:47:41;;;;;;;7.80;4.65;;;;;;;25.93;52.06;100245.75;5001568;28;20487;-80
2021/09/14 10:50:09;;;;;;;5.90;4.18;;;;;;;25.96;52.52;100245.88;5000437;28;20426;-79
2021/09/14 10:52:38;;;;;;;5.43;4.70;;;;;;;26.07;52.24;100232.28;5018908;28;20757;-80
2021/09/14 10:55:06;;;;;;;5.20;4.80;;;;;;;26.19;51.99;100229.47;5005080;28;20417;-79
2021/09/14 10:57:40;;;;;;;5.50;5.00;;;;;;;26.25;52.19;100226.09;5003981;28;20461;-80
2021/09/14 11:00:15;;;;;;;5.93;4.93;;;;;;;26.21;51.98;100232.72;4997456;28;20416;-80
2021/09/14 11:02:40;;;;;;;5.32;4.93;;;;;;;26.06;52.33;100228.69;5001312;28;20796;-79
2021/09/14 11:05:07;;;;;;;6.07;5.20;;;;;;;25.75;52.85;100226.59;4993771;28;20460;-78
2021/09/14 11:07:33;;;;;;;6.05;5.45;;;;;;;25.46;53.89;100228.84;5012743;28;20428;-80
2021/09/14 11:10:05;;;;;;;8.23;5.40;;;;;;;25.24;55.26;100227.38;5002789;28;20581;-80
2021/09/14 11:12:30;;;;;;;5.10;4.68;;;;;;;25.13;55.63;100223.47;5004531;28;20777;-81
2021/09/14 11:14:58;;;;;;;5.87;5.20;;;;;;;25.11;55.45;100228.56;4996818;28;20402;-80
2021/09/14 11:17:29;;;;;;;6.47;5.90;;;;;;;25.10;55.89;100226.94;4998048;28;20426;-79
2021/09/14 11:20:06;;;;;;;7.10;5.47;;;;;;;24.97;56.41;100226.13;4998673;28;20405;-79
2021/09/14 11:22:34;;;;;;;6.88;6.20;;;;;;;24.95;57.12;100222.91;4997204;28;20434;-81
2021/09/14 11:24:59;;;;;;;6.68;5.60;;;;;;;24.88;57.51;100217.13;5001690;28;20399;-80
2021/09/14 11:27:25;;;;;;;6.63;5.33;;;;;;;24.72;57.89;100214.19;4993534;28;20410;-79
2021/09/14 11:29:51;;;;;;;6.47;5.83;;;;;;;24.61;58.61;100226.06;4993312;28;20474;-81
2021/09/14 11:32:16;;;;;;;6.18;5.57;;;;;;;24.59;59.50;100231.97;4996233;28;20402;-80
2021/09/14 11:34:47;;;;;;;8.43;5.75;;;;;;;24.65;58.44;100224.22;5000959;28;20408;-80
2021/09/14 11:37:14;;;;;;;7.05;5.97;;;;;;;24.71;59.11;100223.66;4999197;28;20474;-80
2021/09/14 11:39:39;;;;;;;10.48;6.43;;;;;;;24.74;58.70;100222.97;4996147;28;20403;-79
2021/09/14 11:42:16;;;;;;;5.90;5.43;;;;;;;24.76;58.61;100223.41;4993603;28;20405;-79
2021/09/14 11:44:42;;;;;;;8.68;5.53;;;;;;;24.90;57.89;100227.84;4991495;28;20410;-81
2021/09/14 11:47:09;;;;;;;9.95;5.32;;;;;;;25.02;59.37;100225.91;5011175;28;20397;-80
2021/09/14 11:49:35;;;;;;;5.82;5.10;;;;;;;25.07;58.62;100233.16;5002054;28;20411;-80
2021/09/14 11:52:03;;;;;;;6.85;5.90;;;;;;;25.22;58.01;100236.06;5007116;28;20882;-81
2021/09/14 11:54:39;;;;;;;6.45;5.57;;;;;;;25.48;57.42;100229.31;4996350;28;20440;-81
2021/09/14 11:57:05;;;;;;;6.22;5.43;;;;;;;25.74;56.39;100227.78;4994598;28;20414;-81
2021/09/14 11:59:32;;;;;;;5.00;4.60;;;;;;;26.10;55.73;100218.50;5010766;28;20409;-80
2021/09/14 12:01:58;;;;;;;7.15;5.53;;;;;;;26.39;55.18;100224.84;5002490;28;20487;-81
2021/09/14 12:04:23;;;;;;;6.63;4.45;;;;;;;26.68;54.13;100224.44;5007382;28;20991;-79
2021/09/14 12:06:50;;;;;;;5.53;5.03;;;;;;;26.83;52.11;100218.13;5002555;28;20482;-79
2021/09/14 12:09:18;;;;;;;6.68;4.50;;;;;;;27.01;51.64;100208.22;5005954;28;20509;-78
2021/09/14 12:11:44;;;;;;;8.27;5.10;;;;;;;27.04;51.21;100207.50;4992467;28;20885;-80
2021/09/14 12:14:11;;;;;;;6.00;5.40;;;;;;;27.00;52.01;100209.41;4992534;28;20457;-81